sensor_id;sensor_type;location;lat;lon;timestamp;P1;P2;P0
76661;PMS5003;65579;45.534;6.212;2023-11-21T00:00:12;44;43;
76661;PMS5003;65579;45.534;6.212;2023-11-21T00:02:37;42;42;
76661;PMS5003;65579;45.534;6.212;2023-11-21T00:05:03;59;47;
76661;PMS5003;65579;45.534;6.212;2023-11-21T00:07:29;59;57;
76661;PMS5003;65579;45.534;6.212;2023-11-21T00:09:54;44;43;
76661;PMS5003;65579;45.534;6.212;2023-11-21T00:12:20;44;43;
76661;PMS5003;65579;45.534;6.212;2023-11-21T00:14:45;54;48;
76661;PMS5003;65579;45.534;6.212;2023-11-21T00:17:11;52;48;
76661;PMS5003;65579;45.534;6.212;2023-11-21T00:19:36;57;53;
76661;PMS5003;65579;45.534;6.212;2023-11-21T00:22:01;50;44;
76661;PMS5003;65579;45.534;6.212;2023-11-21T00:24:27;44;41;
76661;PMS5003;65579;45.534;6.212;2023-11-21T00:26:52;42;40;
76661;PMS5003;65579;45.534;6.212;2023-11-21T00:29:17;40;35;
76661;PMS5003;65579;45.534;6.212;2023-11-21T00:31:43;35;33;
76661;PMS5003;65579;45.534;6.212;2023-11-21T00:34:08;46;41;
76661;PMS5003;65579;45.534;6.212;2023-11-21T00:36:34;43;41;
76661;PMS5003;65579;45.534;6.212;2023-11-21T00:39:00;37;35;
76661;PMS5003;65579;45.534;6.212;2023-11-21T00:41:25;33;32;
76661;PMS5003;65579;45.534;6.212;2023-11-21T00:43:50;32;30;
76661;PMS5003;65579;45.534;6.212;2023-11-21T00:46:16;30;26;
76661;PMS5003;65579;45.534;6.212;2023-11-21T00:48:41;32;32;
76661;PMS5003;65579;45.534;6.212;2023-11-21T00:51:06;30;28;
76661;PMS5003;65579;45.534;6.212;2023-11-21T00:53:31;33;32;
76661;PMS5003;65579;45.534;6.212;2023-11-21T00:55:57;33;31;
76661;PMS5003;65579;45.534;6.212;2023-11-21T00:58:23;32;30;
76661;PMS5003;65579;45.534;6.212;2023-11-21T01:00:47;19;16;
76661;PMS5003;65579;45.534;6.212;2023-11-21T01:03:13;12;10;
76661;PMS5003;65579;45.534;6.212;2023-11-21T01:05:38;4;4;
76661;PMS5003;65579;45.534;6.212;2023-11-21T01:08:04;7;6;
76661;PMS5003;65579;45.534;6.212;2023-11-21T01:10:29;7;4;
76661;PMS5003;65579;45.534;6.212;2023-11-21T01:12:54;1;1;
76661;PMS5003;65579;45.534;6.212;2023-11-21T01:15:20;2;2;
76661;PMS5003;65579;45.534;6.212;2023-11-21T01:17:45;2;1;
76661;PMS5003;65579;45.534;6.212;2023-11-21T01:20:12;1;1;
76661;PMS5003;65579;45.534;6.212;2023-11-21T01:22:36;1;1;
76661;PMS5003;65579;45.534;6.212;2023-11-21T01:25:01;2;2;
76661;PMS5003;65579;45.534;6.212;2023-11-21T01:27:27;2;2;
76661;PMS5003;65579;45.534;6.212;2023-11-21T01:29:52;2;2;
76661;PMS5003;65579;45.534;6.212;2023-11-21T01:32:18;1;1;
76661;PMS5003;65579;45.534;6.212;2023-11-21T01:34:43;1;1;
76661;PMS5003;65579;45.534;6.212;2023-11-21T01:37:09;2;2;
76661;PMS5003;65579;45.534;6.212;2023-11-21T01:39:34;1;1;
76661;PMS5003;65579;45.534;6.212;2023-11-21T01:42:00;1;1;
76661;PMS5003;65579;45.534;6.212;2023-11-21T01:44:25;1;1;
76661;PMS5003;65579;45.534;6.212;2023-11-21T01:46:50;1;1;
76661;PMS5003;65579;45.534;6.212;2023-11-21T01:49:16;1;1;
76661;PMS5003;65579;45.534;6.212;2023-11-21T01:51:41;2;2;
76661;PMS5003;65579;45.534;6.212;2023-11-21T01:54:07;1;1;
76661;PMS5003;65579;45.534;6.212;2023-11-21T01:56:32;1;1;
76661;PMS5003;65579;45.534;6.212;2023-11-21T01:58:58;1;1;
76661;PMS5003;65579;45.534;6.212;2023-11-21T02:01:23;1;1;
76661;PMS5003;65579;45.534;6.212;2023-11-21T02:03:49;1;1;
76661;PMS5003;65579;45.534;6.212;2023-11-21T02:06:14;1;1;
76661;PMS5003;65579;45.534;6.212;2023-11-21T02:08:40;2;2;
76661;PMS5003;65579;45.534;6.212;2023-11-21T02:11:05;0;0;
76661;PMS5003;65579;45.534;6.212;2023-11-21T02:13:30;1;1;
76661;PMS5003;65579;45.534;6.212;2023-11-21T02:15:56;1;1;
76661;PMS5003;65579;45.534;6.212;2023-11-21T02:18:21;1;1;
76661;PMS5003;65579;45.534;6.212;2023-11-21T02:20:47;1;1;
76661;PMS5003;65579;45.534;6.212;2023-11-21T02:23:12;1;1;
76661;PMS5003;65579;45.534;6.212;2023-11-21T02:25:37;0;0;
76661;PMS5003;65579;45.534;6.212;2023-11-21T02:28:03;3;3;
76661;PMS5003;65579;45.534;6.212;2023-11-21T02:30:28;1;1;
76661;PMS5003;65579;45.534;6.212;2023-11-21T02:32:54;2;2;
76661;PMS5003;65579;45.534;6.212;2023-11-21T02:35:19;3;3;
76661;PMS5003;65579;45.534;6.212;2023-11-21T02:37:44;2;2;
76661;PMS5003;65579;45.534;6.212;2023-11-21T02:40:10;2;2;
76661;PMS5003;65579;45.534;6.212;2023-11-21T02:42:35;3;3;
76661;PMS5003;65579;45.534;6.212;2023-11-21T02:45:01;3;3;
76661;PMS5003;65579;45.534;6.212;2023-11-21T02:47:26;4;4;
76661;PMS5003;65579;45.534;6.212;2023-11-21T02:49:52;3;2;
76661;PMS5003;65579;45.534;6.212;2023-11-21T02:52:17;3;3;
76661;PMS5003;65579;45.534;6.212;2023-11-21T02:54:42;3;3;
76661;PMS5003;65579;45.534;6.212;2023-11-21T02:57:08;2;2;
76661;PMS5003;65579;45.534;6.212;2023-11-21T02:59:33;2;2;
76661;PMS5003;65579;45.534;6.212;2023-11-21T03:01:59;2;2;
76661;PMS5003;65579;45.534;6.212;2023-11-21T03:04:24;2;2;
76661;PMS5003;65579;45.534;6.212;2023-11-21T03:06:49;2;2;
76661;PMS5003;65579;45.534;6.212;2023-11-21T03:09:15;3;3;
76661;PMS5003;65579;45.534;6.212;2023-11-21T03:11:40;4;3;
76661;PMS5003;65579;45.534;6.212;2023-11-21T03:14:06;3;3;
76661;PMS5003;65579;45.534;6.212;2023-11-21T03:16:31;2;2;
76661;PMS5003;65579;45.534;6.212;2023-11-21T03:18:57;1;1;
76661;PMS5003;65579;45.534;6.212;2023-11-21T03:21:22;1;1;
76661;PMS5003;65579;45.534;6.212;2023-11-21T03:23:47;3;3;
76661;PMS5003;65579;45.534;6.212;2023-11-21T03:26:13;3;3;
76661;PMS5003;65579;45.534;6.212;2023-11-21T03:28:38;3;3;
76661;PMS5003;65579;45.534;6.212;2023-11-21T03:31:04;3;2;
76661;PMS5003;65579;45.534;6.212;2023-11-21T03:33:29;4;4;
76661;PMS5003;65579;45.534;6.212;2023-11-21T03:35:55;2;2;
76661;PMS5003;65579;45.534;6.212;2023-11-21T03:38:20;2;2;
76661;PMS5003;65579;45.534;6.212;2023-11-21T03:40:46;1;1;
76661;PMS5003;65579;45.534;6.212;2023-11-21T03:43:11;0;0;
76661;PMS5003;65579;45.534;6.212;2023-11-21T03:45:37;1;1;
76661;PMS5003;65579;45.534;6.212;2023-11-21T03:48:02;1;0;
76661;PMS5003;65579;45.534;6.212;2023-11-21T03:50:27;0;0;
76661;PMS5003;65579;45.534;6.212;2023-11-21T03:52:53;0;0;
76661;PMS5003;65579;45.534;6.212;2023-11-21T03:55:18;1;1;
76661;PMS5003;65579;45.534;6.212;2023-11-21T03:57:44;3;3;
76661;PMS5003;65579;45.534;6.212;2023-11-21T04:00:09;3;3;
76661;PMS5003;65579;45.534;6.212;2023-11-21T04:02:34;2;2;
76661;PMS5003;65579;45.534;6.212;2023-11-21T04:05:00;2;2;
76661;PMS5003;65579;45.534;6.212;2023-11-21T04:07:25;1;1;
76661;PMS5003;65579;45.534;6.212;2023-11-21T04:09:51;3;2;
76661;PMS5003;65579;45.534;6.212;2023-11-21T04:12:16;4;4;
76661;PMS5003;65579;45.534;6.212;2023-11-21T04:14:42;8;7;
76661;PMS5003;65579;45.534;6.212;2023-11-21T04:17:07;10;10;
76661;PMS5003;65579;45.534;6.212;2023-11-21T04:19:33;9;6;
76661;PMS5003;65579;45.534;6.212;2023-11-21T04:21:58;10;9;
76661;PMS5003;65579;45.534;6.212;2023-11-21T04:24:24;8;8;
76661;PMS5003;65579;45.534;6.212;2023-11-21T04:26:49;10;10;
76661;PMS5003;65579;45.534;6.212;2023-11-21T04:29:14;10;10;
76661;PMS5003;65579;45.534;6.212;2023-11-21T04:31:40;9;8;
76661;PMS5003;65579;45.534;6.212;2023-11-21T04:34:05;10;10;
76661;PMS5003;65579;45.534;6.212;2023-11-21T04:36:31;6;6;
76661;PMS5003;65579;45.534;6.212;2023-11-21T04:38:56;6;6;
76661;PMS5003;65579;45.534;6.212;2023-11-21T04:41:22;9;9;
76661;PMS5003;65579;45.534;6.212;2023-11-21T04:43:47;6;6;
76661;PMS5003;65579;45.534;6.212;2023-11-21T04:46:13;6;6;
76661;PMS5003;65579;45.534;6.212;2023-11-21T04:48:38;4;4;
76661;PMS5003;65579;45.534;6.212;2023-11-21T04:51:04;4;4;
76661;PMS5003;65579;45.534;6.212;2023-11-21T04:53:29;4;4;
76661;PMS5003;65579;45.534;6.212;2023-11-21T04:55:54;4;4;
76661;PMS5003;65579;45.534;6.212;2023-11-21T04:58:21;3;3;
76661;PMS5003;65579;45.534;6.212;2023-11-21T05:00:45;2;2;
76661;PMS5003;65579;45.534;6.212;2023-11-21T05:03:11;4;4;
76661;PMS5003;65579;45.534;6.212;2023-11-21T05:05:36;3;3;
76661;PMS5003;65579;45.534;6.212;2023-11-21T05:08:02;5;4;
76661;PMS5003;65579;45.534;6.212;2023-11-21T05:10:27;4;4;
76661;PMS5003;65579;45.534;6.212;2023-11-21T05:12:52;2;2;
76661;PMS5003;65579;45.534;6.212;2023-11-21T05:15:18;6;6;
76661;PMS5003;65579;45.534;6.212;2023-11-21T05:17:43;6;5;
76661;PMS5003;65579;45.534;6.212;2023-11-21T05:20:09;5;5;
76661;PMS5003;65579;45.534;6.212;2023-11-21T05:22:34;10;7;
76661;PMS5003;65579;45.534;6.212;2023-11-21T05:25:00;5;5;
76661;PMS5003;65579;45.534;6.212;2023-11-21T05:27:25;5;5;
76661;PMS5003;65579;45.534;6.212;2023-11-21T05:29:51;7;7;
76661;PMS5003;65579;45.534;6.212;2023-11-21T05:32:16;6;6;
76661;PMS5003;65579;45.534;6.212;2023-11-21T05:34:42;6;5;
76661;PMS5003;65579;45.534;6.212;2023-11-21T05:37:07;4;4;
76661;PMS5003;65579;45.534;6.212;2023-11-21T05:39:32;4;4;
76661;PMS5003;65579;45.534;6.212;2023-11-21T05:41:58;4;4;
76661;PMS5003;65579;45.534;6.212;2023-11-21T05:44:23;4;4;
76661;PMS5003;65579;45.534;6.212;2023-11-21T05:46:49;15;15;
76661;PMS5003;65579;45.534;6.212;2023-11-21T05:49:14;10;10;
76661;PMS5003;65579;45.534;6.212;2023-11-21T05:51:40;13;13;
76661;PMS5003;65579;45.534;6.212;2023-11-21T05:54:05;10;10;
76661;PMS5003;65579;45.534;6.212;2023-11-21T05:56:30;9;8;
76661;PMS5003;65579;45.534;6.212;2023-11-21T05:58:56;12;11;
76661;PMS5003;65579;45.534;6.212;2023-11-21T06:01:21;11;10;
76661;PMS5003;65579;45.534;6.212;2023-11-21T06:03:47;13;13;
76661;PMS5003;65579;45.534;6.212;2023-11-21T06:06:12;14;14;
76661;PMS5003;65579;45.534;6.212;2023-11-21T06:08:37;20;17;
76661;PMS5003;65579;45.534;6.212;2023-11-21T06:11:03;17;14;
76661;PMS5003;65579;45.534;6.212;2023-11-21T06:13:28;25;21;
76661;PMS5003;65579;45.534;6.212;2023-11-21T06:15:54;23;22;
76661;PMS5003;65579;45.534;6.212;2023-11-21T06:18:19;22;21;
76661;PMS5003;65579;45.534;6.212;2023-11-21T06:20:45;25;25;
76661;PMS5003;65579;45.534;6.212;2023-11-21T06:23:10;24;22;
76661;PMS5003;65579;45.534;6.212;2023-11-21T06:25:35;20;16;
76661;PMS5003;65579;45.534;6.212;2023-11-21T06:28:00;18;16;
76661;PMS5003;65579;45.534;6.212;2023-11-21T06:30:25;22;21;
76661;PMS5003;65579;45.534;6.212;2023-11-21T06:32:51;15;13;
76661;PMS5003;65579;45.534;6.212;2023-11-21T06:35:16;17;15;
76661;PMS5003;65579;45.534;6.212;2023-11-21T06:37:42;15;14;
76661;PMS5003;65579;45.534;6.212;2023-11-21T06:40:07;12;12;
76661;PMS5003;65579;45.534;6.212;2023-11-21T06:42:32;11;11;
76661;PMS5003;65579;45.534;6.212;2023-11-21T06:44:58;12;11;
76661;PMS5003;65579;45.534;6.212;2023-11-21T06:47:23;11;11;
76661;PMS5003;65579;45.534;6.212;2023-11-21T06:49:49;15;15;
76661;PMS5003;65579;45.534;6.212;2023-11-21T06:52:14;13;13;
76661;PMS5003;65579;45.534;6.212;2023-11-21T06:54:40;14;14;
76661;PMS5003;65579;45.534;6.212;2023-11-21T06:57:05;20;20;
76661;PMS5003;65579;45.534;6.212;2023-11-21T06:59:30;16;16;
76661;PMS5003;65579;45.534;6.212;2023-11-21T07:01:55;13;13;
76661;PMS5003;65579;45.534;6.212;2023-11-21T07:04:20;28;27;
76661;PMS5003;65579;45.534;6.212;2023-11-21T07:06:46;20;19;
76661;PMS5003;65579;45.534;6.212;2023-11-21T07:09:11;27;26;
76661;PMS5003;65579;45.534;6.212;2023-11-21T07:11:37;43;41;
76661;PMS5003;65579;45.534;6.212;2023-11-21T07:14:02;41;38;
76661;PMS5003;65579;45.534;6.212;2023-11-21T07:16:28;44;42;
76661;PMS5003;65579;45.534;6.212;2023-11-21T07:18:53;29;27;
76661;PMS5003;65579;45.534;6.212;2023-11-21T07:21:19;35;33;
76661;PMS5003;65579;45.534;6.212;2023-11-21T07:23:45;39;36;
76661;PMS5003;65579;45.534;6.212;2023-11-21T07:26:10;34;34;
76661;PMS5003;65579;45.534;6.212;2023-11-21T07:28:35;26;25;
76661;PMS5003;65579;45.534;6.212;2023-11-21T07:31:01;15;14;
76661;PMS5003;65579;45.534;6.212;2023-11-21T07:33:26;12;11;
76661;PMS5003;65579;45.534;6.212;2023-11-21T07:35:51;11;10;
76661;PMS5003;65579;45.534;6.212;2023-11-21T07:38:16;9;9;
76661;PMS5003;65579;45.534;6.212;2023-11-21T07:40:42;12;10;
76661;PMS5003;65579;45.534;6.212;2023-11-21T07:43:07;11;11;
76661;PMS5003;65579;45.534;6.212;2023-11-21T07:45:33;13;11;
76661;PMS5003;65579;45.534;6.212;2023-11-21T07:47:58;14;13;
76661;PMS5003;65579;45.534;6.212;2023-11-21T07:50:23;17;13;
76661;PMS5003;65579;45.534;6.212;2023-11-21T07:52:49;14;14;
76661;PMS5003;65579;45.534;6.212;2023-11-21T07:55:14;15;15;
76661;PMS5003;65579;45.534;6.212;2023-11-21T07:57:40;12;12;
76661;PMS5003;65579;45.534;6.212;2023-11-21T08:00:06;58;51;
76661;PMS5003;65579;45.534;6.212;2023-11-21T08:02:31;42;38;
76661;PMS5003;65579;45.534;6.212;2023-11-21T08:04:56;33;29;
76661;PMS5003;65579;45.534;6.212;2023-11-21T08:07:21;26;25;
76661;PMS5003;65579;45.534;6.212;2023-11-21T08:09:47;18;18;
76661;PMS5003;65579;45.534;6.212;2023-11-21T08:12:12;22;20;
76661;PMS5003;65579;45.534;6.212;2023-11-21T08:14:38;21;21;
76661;PMS5003;65579;45.534;6.212;2023-11-21T08:17:03;32;31;
76661;PMS5003;65579;45.534;6.212;2023-11-21T08:19:29;29;28;
76661;PMS5003;65579;45.534;6.212;2023-11-21T08:21:54;23;23;
76661;PMS5003;65579;45.534;6.212;2023-11-21T08:24:20;24;23;
76661;PMS5003;65579;45.534;6.212;2023-11-21T08:26:44;21;18;
76661;PMS5003;65579;45.534;6.212;2023-11-21T08:29:10;19;18;
76661;PMS5003;65579;45.534;6.212;2023-11-21T08:31:35;17;17;
76661;PMS5003;65579;45.534;6.212;2023-11-21T08:34:01;15;15;
76661;PMS5003;65579;45.534;6.212;2023-11-21T08:36:26;15;13;
76661;PMS5003;65579;45.534;6.212;2023-11-21T08:38:51;15;14;
76661;PMS5003;65579;45.534;6.212;2023-11-21T08:41:17;16;15;
76661;PMS5003;65579;45.534;6.212;2023-11-21T08:43:42;15;14;
76661;PMS5003;65579;45.534;6.212;2023-11-21T08:46:07;21;19;
76661;PMS5003;65579;45.534;6.212;2023-11-21T08:48:33;16;13;
76661;PMS5003;65579;45.534;6.212;2023-11-21T08:50:58;14;10;
76661;PMS5003;65579;45.534;6.212;2023-11-21T08:53:23;13;13;
76661;PMS5003;65579;45.534;6.212;2023-11-21T08:55:49;16;15;
76661;PMS5003;65579;45.534;6.212;2023-11-21T08:58:14;16;15;
76661;PMS5003;65579;45.534;6.212;2023-11-21T09:00:39;17;15;
76661;PMS5003;65579;45.534;6.212;2023-11-21T09:03:05;15;14;
76661;PMS5003;65579;45.534;6.212;2023-11-21T09:05:30;15;15;
76661;PMS5003;65579;45.534;6.212;2023-11-21T09:07:55;17;17;
76661;PMS5003;65579;45.534;6.212;2023-11-21T09:10:21;13;11;
76661;PMS5003;65579;45.534;6.212;2023-11-21T09:12:46;14;14;
76661;PMS5003;65579;45.534;6.212;2023-11-21T09:15:12;14;13;
76661;PMS5003;65579;45.534;6.212;2023-11-21T09:17:37;15;15;
76661;PMS5003;65579;45.534;6.212;2023-11-21T09:20:02;12;12;
76661;PMS5003;65579;45.534;6.212;2023-11-21T09:22:27;15;13;
76661;PMS5003;65579;45.534;6.212;2023-11-21T09:24:53;13;12;
76661;PMS5003;65579;45.534;6.212;2023-11-21T09:27:18;11;11;
76661;PMS5003;65579;45.534;6.212;2023-11-21T09:29:43;11;11;
76661;PMS5003;65579;45.534;6.212;2023-11-21T09:32:09;14;12;
76661;PMS5003;65579;45.534;6.212;2023-11-21T09:34:34;11;9;
76661;PMS5003;65579;45.534;6.212;2023-11-21T09:37:00;9;9;
76661;PMS5003;65579;45.534;6.212;2023-11-21T09:39:25;13;13;
76661;PMS5003;65579;45.534;6.212;2023-11-21T09:41:51;9;9;
76661;PMS5003;65579;45.534;6.212;2023-11-21T09:44:17;10;9;
76661;PMS5003;65579;45.534;6.212;2023-11-21T09:46:41;9;9;
76661;PMS5003;65579;45.534;6.212;2023-11-21T09:49:08;12;12;
76661;PMS5003;65579;45.534;6.212;2023-11-21T09:51:32;13;11;
76661;PMS5003;65579;45.534;6.212;2023-11-21T09:53:57;10;9;
76661;PMS5003;65579;45.534;6.212;2023-11-21T09:56:23;9;8;
76661;PMS5003;65579;45.534;6.212;2023-11-21T09:58:50;7;7;
76661;PMS5003;65579;45.534;6.212;2023-11-21T10:01:13;12;12;
76661;PMS5003;65579;45.534;6.212;2023-11-21T10:03:39;11;11;
76661;PMS5003;65579;45.534;6.212;2023-11-21T10:06:05;11;11;
76661;PMS5003;65579;45.534;6.212;2023-11-21T10:08:29;11;10;
76661;PMS5003;65579;45.534;6.212;2023-11-21T10:10:55;9;9;
76661;PMS5003;65579;45.534;6.212;2023-11-21T10:13:20;9;9;
76661;PMS5003;65579;45.534;6.212;2023-11-21T10:15:48;12;11;
76661;PMS5003;65579;45.534;6.212;2023-11-21T10:18:11;12;10;
76661;PMS5003;65579;45.534;6.212;2023-11-21T10:20:37;9;9;
76661;PMS5003;65579;45.534;6.212;2023-11-21T10:23:02;8;7;
76661;PMS5003;65579;45.534;6.212;2023-11-21T10:25:27;9;9;
76661;PMS5003;65579;45.534;6.212;2023-11-21T10:27:57;11;10;
76661;PMS5003;65579;45.534;6.212;2023-11-21T10:30:18;7;7;
76661;PMS5003;65579;45.534;6.212;2023-11-21T10:32:44;7;6;
76661;PMS5003;65579;45.534;6.212;2023-11-21T10:35:09;4;4;
76661;PMS5003;65579;45.534;6.212;2023-11-21T10:37:34;4;4;
76661;PMS5003;65579;45.534;6.212;2023-11-21T10:40:00;6;5;
76661;PMS5003;65579;45.534;6.212;2023-11-21T10:42:25;5;5;
76661;PMS5003;65579;45.534;6.212;2023-11-21T10:44:50;4;4;
76661;PMS5003;65579;45.534;6.212;2023-11-21T10:47:16;4;4;
76661;PMS5003;65579;45.534;6.212;2023-11-21T10:49:41;5;5;
76661;PMS5003;65579;45.534;6.212;2023-11-21T10:52:07;5;5;
76661;PMS5003;65579;45.534;6.212;2023-11-21T10:54:32;4;4;
76661;PMS5003;65579;45.534;6.212;2023-11-21T10:56:58;5;5;
76661;PMS5003;65579;45.534;6.212;2023-11-21T10:59:23;6;5;
76661;PMS5003;65579;45.534;6.212;2023-11-21T11:01:48;5;5;
76661;PMS5003;65579;45.534;6.212;2023-11-21T11:04:13;5;5;
76661;PMS5003;65579;45.534;6.212;2023-11-21T11:06:39;7;7;
76661;PMS5003;65579;45.534;6.212;2023-11-21T11:09:04;5;5;
76661;PMS5003;65579;45.534;6.212;2023-11-21T11:11:30;5;5;
76661;PMS5003;65579;45.534;6.212;2023-11-21T11:13:55;8;7;
76661;PMS5003;65579;45.534;6.212;2023-11-21T11:16:20;6;6;
76661;PMS5003;65579;45.534;6.212;2023-11-21T11:18:46;6;6;
76661;PMS5003;65579;45.534;6.212;2023-11-21T11:21:24;7;5;
76661;PMS5003;65579;45.534;6.212;2023-11-21T11:23:46;6;6;
76661;PMS5003;65579;45.534;6.212;2023-11-21T11:26:07;7;7;
76661;PMS5003;65579;45.534;6.212;2023-11-21T11:28:29;7;7;
76661;PMS5003;65579;45.534;6.212;2023-11-21T11:30:56;7;6;
76661;PMS5003;65579;45.534;6.212;2023-11-21T11:33:21;4;4;
76661;PMS5003;65579;45.534;6.212;2023-11-21T11:35:46;4;4;
76661;PMS5003;65579;45.534;6.212;2023-11-21T11:38:09;3;3;
76661;PMS5003;65579;45.534;6.212;2023-11-21T11:40:40;3;3;
76661;PMS5003;65579;45.534;6.212;2023-11-21T11:43:00;3;2;
76661;PMS5003;65579;45.534;6.212;2023-11-21T11:45:25;2;2;
76661;PMS5003;65579;45.534;6.212;2023-11-21T11:47:56;5;4;
76661;PMS5003;65579;45.534;6.212;2023-11-21T11:50:17;2;2;
76661;PMS5003;65579;45.534;6.212;2023-11-21T11:52:42;4;4;
76661;PMS5003;65579;45.534;6.212;2023-11-21T11:55:07;5;5;
76661;PMS5003;65579;45.534;6.212;2023-11-21T11:57:32;5;5;
76661;PMS5003;65579;45.534;6.212;2023-11-21T12:02:24;6;6;
76661;PMS5003;65579;45.534;6.212;2023-11-21T12:04:48;6;6;
76661;PMS5003;65579;45.534;6.212;2023-11-21T12:07:14;6;6;
76661;PMS5003;65579;45.534;6.212;2023-11-21T12:09:39;6;6;
76661;PMS5003;65579;45.534;6.212;2023-11-21T12:12:05;7;7;
76661;PMS5003;65579;45.534;6.212;2023-11-21T12:14:30;6;6;
76661;PMS5003;65579;45.534;6.212;2023-11-21T12:16:55;8;7;
76661;PMS5003;65579;45.534;6.212;2023-11-21T12:19:21;5;5;
76661;PMS5003;65579;45.534;6.212;2023-11-21T12:21:46;10;8;
76661;PMS5003;65579;45.534;6.212;2023-11-21T12:24:11;7;6;
76661;PMS5003;65579;45.534;6.212;2023-11-21T12:26:37;8;6;
76661;PMS5003;65579;45.534;6.212;2023-11-21T12:29:02;6;6;
76661;PMS5003;65579;45.534;6.212;2023-11-21T12:31:28;7;6;
76661;PMS5003;65579;45.534;6.212;2023-11-21T12:33:53;6;6;
76661;PMS5003;65579;45.534;6.212;2023-11-21T12:36:18;5;5;
76661;PMS5003;65579;45.534;6.212;2023-11-21T12:38:44;6;6;
76661;PMS5003;65579;45.534;6.212;2023-11-21T12:41:09;5;5;
76661;PMS5003;65579;45.534;6.212;2023-11-21T12:43:34;5;5;
76661;PMS5003;65579;45.534;6.212;2023-11-21T12:46:04;6;5;
76661;PMS5003;65579;45.534;6.212;2023-11-21T12:48:25;7;7;
76661;PMS5003;65579;45.534;6.212;2023-11-21T12:50:50;4;3;
76661;PMS5003;65579;45.534;6.212;2023-11-21T12:53:16;5;4;
76661;PMS5003;65579;45.534;6.212;2023-11-21T12:55:43;6;6;
76661;PMS5003;65579;45.534;6.212;2023-11-21T12:58:07;5;5;
76661;PMS5003;65579;45.534;6.212;2023-11-21T13:00:33;6;5;
76661;PMS5003;65579;45.534;6.212;2023-11-21T13:02:58;5;5;
76661;PMS5003;65579;45.534;6.212;2023-11-21T13:05:23;4;4;
76661;PMS5003;65579;45.534;6.212;2023-11-21T13:07:48;6;6;
76661;PMS5003;65579;45.534;6.212;2023-11-21T13:10:13;5;5;
76661;PMS5003;65579;45.534;6.212;2023-11-21T13:12:42;7;6;
76661;PMS5003;65579;45.534;6.212;2023-11-21T13:15:05;4;4;
76661;PMS5003;65579;45.534;6.212;2023-11-21T13:17:30;5;5;
76661;PMS5003;65579;45.534;6.212;2023-11-21T13:19:55;5;5;
76661;PMS5003;65579;45.534;6.212;2023-11-21T13:22:20;4;4;
76661;PMS5003;65579;45.534;6.212;2023-11-21T13:24:46;4;4;
76661;PMS5003;65579;45.534;6.212;2023-11-21T13:27:11;5;5;
76661;PMS5003;65579;45.534;6.212;2023-11-21T13:29:37;4;4;
76661;PMS5003;65579;45.534;6.212;2023-11-21T13:32:02;5;5;
76661;PMS5003;65579;45.534;6.212;2023-11-21T13:34:27;5;4;
76661;PMS5003;65579;45.534;6.212;2023-11-21T13:36:53;4;3;
76661;PMS5003;65579;45.534;6.212;2023-11-21T13:39:18;6;6;
76661;PMS5003;65579;45.534;6.212;2023-11-21T13:41:44;9;8;
76661;PMS5003;65579;45.534;6.212;2023-11-21T13:44:09;5;5;
76661;PMS5003;65579;45.534;6.212;2023-11-21T13:46:34;6;6;
76661;PMS5003;65579;45.534;6.212;2023-11-21T13:49:00;4;4;
76661;PMS5003;65579;45.534;6.212;2023-11-21T13:51:25;8;7;
76661;PMS5003;65579;45.534;6.212;2023-11-21T13:53:51;6;6;
76661;PMS5003;65579;45.534;6.212;2023-11-21T13:56:16;7;7;
76661;PMS5003;65579;45.534;6.212;2023-11-21T13:58:41;7;6;
76661;PMS5003;65579;45.534;6.212;2023-11-21T14:01:07;8;7;
76661;PMS5003;65579;45.534;6.212;2023-11-21T14:03:32;7;6;
76661;PMS5003;65579;45.534;6.212;2023-11-21T14:05:58;8;7;
76661;PMS5003;65579;45.534;6.212;2023-11-21T14:08:23;6;6;
76661;PMS5003;65579;45.534;6.212;2023-11-21T14:10:48;7;6;
76661;PMS5003;65579;45.534;6.212;2023-11-21T14:13:14;7;7;
76661;PMS5003;65579;45.534;6.212;2023-11-21T14:15:39;9;9;
76661;PMS5003;65579;45.534;6.212;2023-11-21T14:18:04;8;8;
76661;PMS5003;65579;45.534;6.212;2023-11-21T14:20:30;5;5;
76661;PMS5003;65579;45.534;6.212;2023-11-21T14:22:55;6;6;
76661;PMS5003;65579;45.534;6.212;2023-11-21T14:25:21;6;6;
76661;PMS5003;65579;45.534;6.212;2023-11-21T14:27:46;7;7;
76661;PMS5003;65579;45.534;6.212;2023-11-21T14:30:11;6;6;
76661;PMS5003;65579;45.534;6.212;2023-11-21T14:32:37;7;6;
76661;PMS5003;65579;45.534;6.212;2023-11-21T14:35:02;6;6;
76661;PMS5003;65579;45.534;6.212;2023-11-21T14:37:27;6;6;
76661;PMS5003;65579;45.534;6.212;2023-11-21T14:39:53;6;5;
76661;PMS5003;65579;45.534;6.212;2023-11-21T14:42:18;5;4;
76661;PMS5003;65579;45.534;6.212;2023-11-21T14:44:44;5;4;
76661;PMS5003;65579;45.534;6.212;2023-11-21T14:47:09;5;4;
76661;PMS5003;65579;45.534;6.212;2023-11-21T14:49:34;8;7;
76661;PMS5003;65579;45.534;6.212;2023-11-21T14:52:00;7;7;
76661;PMS5003;65579;45.534;6.212;2023-11-21T14:54:26;6;5;
76661;PMS5003;65579;45.534;6.212;2023-11-21T14:56:51;5;4;
76661;PMS5003;65579;45.534;6.212;2023-11-21T14:59:16;5;5;
76661;PMS5003;65579;45.534;6.212;2023-11-21T15:01:41;5;5;
76661;PMS5003;65579;45.534;6.212;2023-11-21T15:04:07;6;6;
76661;PMS5003;65579;45.534;6.212;2023-11-21T15:06:32;6;5;
76661;PMS5003;65579;45.534;6.212;2023-11-21T15:08:58;6;6;
76661;PMS5003;65579;45.534;6.212;2023-11-21T15:11:23;7;6;
76661;PMS5003;65579;45.534;6.212;2023-11-21T15:13:48;6;6;
76661;PMS5003;65579;45.534;6.212;2023-11-21T15:16:14;7;7;
76661;PMS5003;65579;45.534;6.212;2023-11-21T15:18:39;5;5;
76661;PMS5003;65579;45.534;6.212;2023-11-21T15:21:05;6;5;
76661;PMS5003;65579;45.534;6.212;2023-11-21T15:23:30;4;4;
76661;PMS5003;65579;45.534;6.212;2023-11-21T15:25:55;7;6;
76661;PMS5003;65579;45.534;6.212;2023-11-21T15:28:21;18;17;
76661;PMS5003;65579;45.534;6.212;2023-11-21T15:30:46;15;14;
76661;PMS5003;65579;45.534;6.212;2023-11-21T15:33:12;4;4;
76661;PMS5003;65579;45.534;6.212;2023-11-21T15:35:37;6;5;
76661;PMS5003;65579;45.534;6.212;2023-11-21T15:38:03;4;4;
76661;PMS5003;65579;45.534;6.212;2023-11-21T15:40:28;3;3;
76661;PMS5003;65579;45.534;6.212;2023-11-21T15:42:53;7;6;
76661;PMS5003;65579;45.534;6.212;2023-11-21T15:45:19;3;3;
76661;PMS5003;65579;45.534;6.212;2023-11-21T15:47:44;4;4;
76661;PMS5003;65579;45.534;6.212;2023-11-21T15:50:10;3;3;
76661;PMS5003;65579;45.534;6.212;2023-11-21T15:52:35;5;5;
76661;PMS5003;65579;45.534;6.212;2023-11-21T15:55:01;6;6;
76661;PMS5003;65579;45.534;6.212;2023-11-21T15:57:26;6;6;
76661;PMS5003;65579;45.534;6.212;2023-11-21T15:59:52;7;7;
76661;PMS5003;65579;45.534;6.212;2023-11-21T16:02:17;9;8;
76661;PMS5003;65579;45.534;6.212;2023-11-21T16:04:43;6;6;
76661;PMS5003;65579;45.534;6.212;2023-11-21T16:07:08;9;9;
76661;PMS5003;65579;45.534;6.212;2023-11-21T16:09:34;6;6;
76661;PMS5003;65579;45.534;6.212;2023-11-21T16:12:00;8;6;
76661;PMS5003;65579;45.534;6.212;2023-11-21T16:14:24;9;9;
76661;PMS5003;65579;45.534;6.212;2023-11-21T16:16:51;6;6;
76661;PMS5003;65579;45.534;6.212;2023-11-21T16:19:15;9;8;
76661;PMS5003;65579;45.534;6.212;2023-11-21T16:21:41;6;6;
76661;PMS5003;65579;45.534;6.212;2023-11-21T16:24:07;5;5;
76661;PMS5003;65579;45.534;6.212;2023-11-21T16:26:32;6;6;
76661;PMS5003;65579;45.534;6.212;2023-11-21T16:28:57;6;6;